createdAt,value
2018-09-30T00:01:43.017Z,7.78
2018-09-30T00:04:11.108Z,3.37
2018-09-30T00:06:39.182Z,5.58
2018-09-30T00:09:07.539Z,4.03
2018-09-30T00:11:35.629Z,4.33
2018-09-30T00:14:03.682Z,1.60
2018-09-30T00:16:31.746Z,2.95
2018-09-30T00:18:59.864Z,8.50
2018-09-30T00:21:27.920Z,3.55
2018-09-30T00:24:01.469Z,3.92
2018-09-30T00:26:34.844Z,4.30
2018-09-30T00:29:02.909Z,11.00
2018-09-30T00:31:30.969Z,5.30
2018-09-30T00:34:04.385Z,2.40
2018-09-30T00:36:32.525Z,8.43
2018-09-30T00:39:00.670Z,6.08
2018-09-30T00:41:28.737Z,1.70
2018-09-30T00:43:56.949Z,2.50
2018-09-30T00:46:25.000Z,3.35
2018-09-30T00:48:53.062Z,3.05
2018-09-30T00:51:21.117Z,1.90
2018-09-30T00:53:49.204Z,3.60
2018-09-30T00:56:17.273Z,2.55
2018-09-30T00:58:45.339Z,1.70
2018-09-30T01:01:13.393Z,2.90
2018-09-30T01:03:41.485Z,6.15
2018-09-30T01:06:09.537Z,4.60
2018-09-30T01:08:37.662Z,4.95
2018-09-30T01:11:05.985Z,3.20
2018-09-30T01:13:34.069Z,1.62
2018-09-30T01:16:02.121Z,2.77
2018-09-30T01:18:30.185Z,1.80
2018-09-30T01:20:58.257Z,1.70
2018-09-30T01:23:26.349Z,8.08
2018-09-30T01:25:54.433Z,1.60
2018-09-30T01:28:22.509Z,2.37
2018-09-30T01:30:50.653Z,3.05
2018-09-30T01:33:18.749Z,2.67
2018-09-30T01:35:46.881Z,2.40
2018-09-30T01:38:14.981Z,3.08
2018-09-30T01:40:43.093Z,2.90
2018-09-30T01:43:11.216Z,3.50
2018-09-30T01:45:39.264Z,5.67
2018-09-30T01:48:07.356Z,13.88
2018-09-30T01:50:35.609Z,1.90
2018-09-30T01:53:03.701Z,2.50
2018-09-30T01:55:31.752Z,4.62
2018-09-30T01:57:59.809Z,4.75
2018-09-30T02:00:27.922Z,1.70
2018-09-30T02:02:55.981Z,7.05
2018-09-30T02:05:24.033Z,3.05
2018-09-30T02:07:52.113Z,3.52
2018-09-30T02:10:20.185Z,3.77
2018-09-30T02:12:48.287Z,3.27
2018-09-30T02:15:16.421Z,5.03
2018-09-30T02:17:44.497Z,5.00
2018-09-30T02:20:12.548Z,3.15
2018-09-30T02:22:40.611Z,14.40
2018-09-30T02:25:08.673Z,3.92
2018-09-30T02:27:36.773Z,3.30
2018-09-30T02:30:05.237Z,3.83
2018-09-30T02:32:33.321Z,3.60
2018-09-30T02:35:01.432Z,7.45
2018-09-30T02:37:29.490Z,3.62
2018-09-30T02:39:57.553Z,3.45
2018-09-30T02:42:25.605Z,3.62
2018-09-30T02:44:53.676Z,12.58
2018-09-30T02:47:21.733Z,3.05
2018-09-30T02:49:49.825Z,6.53
2018-09-30T02:52:17.887Z,3.20
2018-09-30T02:54:45.954Z,2.80
2018-09-30T02:57:14.069Z,2.55
2018-09-30T02:59:42.185Z,2.10
2018-09-30T03:02:10.273Z,4.50
2018-09-30T03:04:38.332Z,3.30
2018-09-30T03:07:12.017Z,3.27
2018-09-30T03:09:42.629Z,1.70
2018-09-30T03:12:10.841Z,3.92
2018-09-30T03:14:39.053Z,6.70
2018-09-30T03:17:07.186Z,3.92
2018-09-30T03:19:35.253Z,2.27
2018-09-30T03:22:03.324Z,3.02
2018-09-30T03:24:31.425Z,3.15
2018-09-30T03:26:59.490Z,1.98
2018-09-30T03:29:27.561Z,3.75
2018-09-30T03:31:55.616Z,2.30
2018-09-30T03:34:23.709Z,1.70
2018-09-30T03:36:51.849Z,3.00
2018-09-30T03:39:19.917Z,2.17
2018-09-30T03:41:47.977Z,2.00
2018-09-30T03:44:16.085Z,1.60
2018-09-30T03:46:44.324Z,2.55
2018-09-30T03:49:12.413Z,6.20
2018-09-30T03:51:40.474Z,3.10
2018-09-30T03:54:08.540Z,1.70
2018-09-30T03:56:36.621Z,2.22
2018-09-30T03:59:04.681Z,5.35
2018-09-30T04:01:32.741Z,1.82
2018-09-30T04:04:00.825Z,2.40
2018-09-30T04:06:28.877Z,2.98
2018-09-30T04:08:56.961Z,1.70
2018-09-30T04:11:25.028Z,3.30
2018-09-30T04:13:53.085Z,2.47
2018-09-30T04:16:21.165Z,1.40
2018-09-30T04:18:49.237Z,3.45
2018-09-30T04:21:17.414Z,10.30
2018-09-30T04:23:45.465Z,3.92
2018-09-30T04:26:13.556Z,1.62
2018-09-30T04:28:41.681Z,1.80
2018-09-30T04:31:09.800Z,4.95
2018-09-30T04:33:37.867Z,2.62
2018-09-30T04:36:06.150Z,2.25
2018-09-30T04:38:34.205Z,9.00
2018-09-30T04:41:02.288Z,3.77
2018-09-30T04:43:30.349Z,2.50
2018-09-30T04:45:58.417Z,2.27
2018-09-30T04:48:26.482Z,2.22
2018-09-30T04:50:54.564Z,3.22
2018-09-30T04:53:22.614Z,2.50
2018-09-30T04:55:50.709Z,2.77
2018-09-30T04:58:18.769Z,2.70
2018-09-30T05:00:46.844Z,2.90
2018-09-30T05:03:14.899Z,4.03
2018-09-30T05:05:43.003Z,4.60
2018-09-30T05:08:11.058Z,3.33
2018-09-30T05:10:39.125Z,2.45
2018-09-30T05:13:07.189Z,1.82
2018-09-30T05:15:35.268Z,3.10
2018-09-30T05:18:03.312Z,1.60
2018-09-30T05:20:31.410Z,4.37
2018-09-30T05:22:59.460Z,2.62
2018-09-30T05:25:27.528Z,2.70
2018-09-30T05:27:55.613Z,6.37
2018-09-30T05:30:23.673Z,4.58
2018-09-30T05:32:51.744Z,7.42
2018-09-30T05:35:19.805Z,3.75
2018-09-30T05:37:47.924Z,2.75
2018-09-30T05:40:16.001Z,3.12
2018-09-30T05:42:44.096Z,4.92
2018-09-30T05:45:12.213Z,2.72
2018-09-30T05:47:40.277Z,3.17
2018-09-30T05:50:08.353Z,3.77
2018-09-30T05:52:36.465Z,4.80
2018-09-30T05:55:04.541Z,2.52
2018-09-30T05:57:32.646Z,3.72
2018-09-30T06:00:00.725Z,3.17
2018-09-30T06:02:28.796Z,5.25
2018-09-30T06:04:56.864Z,3.98
2018-09-30T06:07:24.945Z,8.75
2018-09-30T06:09:53.009Z,3.52
2018-09-30T06:12:21.084Z,2.02
2018-09-30T06:14:49.155Z,3.45
2018-09-30T06:17:17.273Z,3.10
2018-09-30T06:19:45.364Z,3.50
2018-09-30T06:22:13.440Z,2.05
2018-09-30T06:24:41.508Z,3.80
2018-09-30T06:27:09.585Z,8.38
2018-09-30T06:29:37.865Z,3.35
2018-09-30T06:32:06.012Z,3.80
2018-09-30T06:34:34.032Z,3.37
2018-09-30T06:37:02.158Z,3.00
2018-09-30T06:39:30.197Z,10.25
2018-09-30T06:41:58.277Z,2.35
2018-09-30T06:44:26.366Z,2.12
2018-09-30T06:46:54.479Z,14.55
2018-09-30T06:49:22.621Z,10.20
2018-09-30T06:51:50.691Z,2.30
2018-09-30T06:54:18.753Z,3.27
2018-09-30T06:56:46.825Z,3.25
2018-09-30T06:59:14.999Z,10.63
2018-09-30T07:01:43.098Z,3.30
2018-09-30T07:04:11.152Z,3.45
2018-09-30T07:06:39.237Z,6.47
2018-09-30T07:09:07.991Z,4.22
2018-09-30T07:11:36.367Z,3.00
2018-09-30T07:14:04.502Z,3.02
2018-09-30T07:16:32.838Z,4.75
2018-09-30T07:19:00.921Z,3.30
2018-09-30T07:21:28.995Z,5.60
2018-09-30T07:23:57.056Z,3.35
2018-09-30T07:26:25.142Z,3.58
2018-09-30T07:28:53.212Z,10.65
2018-09-30T07:31:21.300Z,9.55
2018-09-30T07:33:49.402Z,7.72
2018-09-30T07:36:17.493Z,4.97
2018-09-30T07:38:45.557Z,3.37
2018-09-30T07:41:13.633Z,3.35
2018-09-30T07:43:41.737Z,4.72
2018-09-30T07:46:09.793Z,9.03
2018-09-30T07:48:37.889Z,3.62
2018-09-30T07:51:05.942Z,5.97
2018-09-30T07:53:34.018Z,6.33
2018-09-30T07:56:02.114Z,6.75
2018-09-30T07:58:30.186Z,3.58
2018-09-30T08:00:58.260Z,4.62
2018-09-30T08:03:26.358Z,6.60
2018-09-30T08:05:54.426Z,5.87
2018-09-30T08:08:22.497Z,5.75
2018-09-30T08:10:50.774Z,5.17
2018-09-30T08:13:18.888Z,9.15
2018-09-30T08:15:47.429Z,10.05
2018-09-30T08:18:15.597Z,17.00
2018-09-30T08:20:43.656Z,8.33
2018-09-30T08:23:11.734Z,7.80
2018-09-30T08:25:39.802Z,6.62
2018-09-30T08:28:07.889Z,5.72
2018-09-30T08:30:36.011Z,5.25
2018-09-30T08:33:04.057Z,6.10
2018-09-30T08:35:32.120Z,5.78
2018-09-30T08:38:05.553Z,6.70
2018-09-30T08:40:39.109Z,8.90
2018-09-30T08:43:07.178Z,7.28
2018-09-30T08:45:35.257Z,6.62
2018-09-30T08:48:03.347Z,10.82
2018-09-30T08:50:31.410Z,6.60
2018-09-30T08:52:59.468Z,9.20
2018-09-30T08:55:27.547Z,5.40
2018-09-30T08:57:55.625Z,4.40
2018-09-30T09:00:23.687Z,3.83
2018-09-30T09:02:51.753Z,5.90
2018-09-30T09:05:19.816Z,6.67
2018-09-30T09:07:47.901Z,4.62
2018-09-30T09:10:15.957Z,5.65
2018-09-30T09:12:44.120Z,4.20
2018-09-30T09:15:12.198Z,10.48
2018-09-30T09:17:40.266Z,4.45
2018-09-30T09:20:08.343Z,4.03
2018-09-30T09:22:36.448Z,5.08
2018-09-30T09:25:04.749Z,4.78
2018-09-30T09:27:32.813Z,4.83
2018-09-30T09:30:00.893Z,5.15
2018-09-30T09:32:28.989Z,3.30
2018-09-30T09:34:57.214Z,4.08
2018-09-30T09:37:25.224Z,5.15
2018-09-30T09:39:53.341Z,3.52
2018-09-30T09:42:21.396Z,3.27
2018-09-30T09:44:49.549Z,5.03
2018-09-30T09:47:17.613Z,4.08
2018-09-30T09:49:45.677Z,5.90
2018-09-30T09:52:13.729Z,3.37
2018-09-30T09:54:41.811Z,4.15
2018-09-30T09:57:09.893Z,7.42
2018-09-30T09:59:37.958Z,6.10
2018-09-30T10:02:06.008Z,4.85
2018-09-30T10:04:34.097Z,6.70
2018-09-30T10:07:02.150Z,9.20
2018-09-30T10:09:30.350Z,10.03
2018-09-30T10:11:58.446Z,5.05
2018-09-30T10:14:26.536Z,7.37
2018-09-30T10:16:54.646Z,7.85
2018-09-30T10:19:22.738Z,8.78
2018-09-30T10:21:50.893Z,9.68
2018-09-30T10:24:19.003Z,11.43
2018-09-30T10:26:47.130Z,9.63
2018-09-30T10:29:15.320Z,7.45
2018-09-30T10:31:43.428Z,7.53
2018-09-30T10:34:11.544Z,12.20
2018-09-30T10:36:39.657Z,8.00
2018-09-30T10:39:08.974Z,7.90
2018-09-30T10:41:36.992Z,8.95
2018-09-30T10:44:05.084Z,8.15
2018-09-30T10:46:33.217Z,9.28
2018-09-30T10:49:01.378Z,1353.83
2018-09-30T10:51:29.482Z,985.95
2018-09-30T10:53:57.857Z,443.77
2018-09-30T10:56:25.953Z,405.05
2018-09-30T10:58:54.123Z,249.05
2018-09-30T11:01:22.222Z,241.12
2018-09-30T11:03:50.325Z,180.00
2018-09-30T11:06:18.421Z,153.45
2018-09-30T11:08:46.520Z,120.28
2018-09-30T11:11:14.611Z,82.35
2018-09-30T11:13:42.697Z,66.57
2018-09-30T11:16:10.824Z,61.88
2018-09-30T11:18:38.897Z,41.25
2018-09-30T11:21:07.642Z,85.15
2018-09-30T11:23:35.725Z,60.00
2018-09-30T11:26:03.821Z,54.60
2018-09-30T11:28:31.928Z,47.15
2018-09-30T11:31:00.022Z,52.00
2018-09-30T11:33:28.113Z,42.78
2018-09-30T11:35:56.222Z,54.70
2018-09-30T11:38:24.333Z,40.48
2018-09-30T11:40:52.429Z,54.08
2018-09-30T11:43:20.513Z,37.83
2018-09-30T11:45:48.653Z,45.25
2018-09-30T11:48:16.742Z,35.85
2018-09-30T11:50:44.837Z,24.25
2018-09-30T11:53:12.942Z,26.17
2018-09-30T11:55:41.050Z,26.07
2018-09-30T11:58:09.145Z,26.10
2018-09-30T12:00:37.325Z,26.60
2018-09-30T12:03:05.418Z,26.10
2018-09-30T12:05:33.494Z,23.10
2018-09-30T12:08:01.684Z,26.02
2018-09-30T12:10:29.788Z,28.60
2018-09-30T12:12:57.869Z,20.37
2018-09-30T12:15:25.974Z,32.63
2018-09-30T12:17:54.058Z,30.37
2018-09-30T12:20:22.145Z,32.00
2018-09-30T12:22:50.229Z,34.95
2018-09-30T12:25:18.313Z,30.48
2018-09-30T12:27:46.385Z,26.52
2018-09-30T12:30:14.500Z,28.02
2018-09-30T12:32:42.593Z,32.65
2018-09-30T12:35:10.705Z,21.73
2018-09-30T12:37:38.778Z,24.37
2018-09-30T12:40:06.864Z,20.90
2018-09-30T12:42:34.943Z,19.25
2018-09-30T12:45:03.030Z,22.02
2018-09-30T12:47:31.116Z,30.60
2018-09-30T12:49:59.234Z,27.15
2018-09-30T12:52:27.331Z,20.95
2018-09-30T12:54:55.426Z,23.27
2018-09-30T12:57:23.543Z,21.62
2018-09-30T12:59:51.660Z,17.82
2018-09-30T13:02:19.725Z,14.05
2018-09-30T13:04:47.816Z,12.58
2018-09-30T13:07:15.906Z,19.55
2018-09-30T13:09:43.980Z,15.72
2018-09-30T13:12:13.762Z,14.05
2018-09-30T13:14:42.642Z,16.30
2018-09-30T13:17:10.736Z,10.90
2018-09-30T13:19:38.870Z,11.40
2018-09-30T13:22:06.994Z,8.75
2018-09-30T13:24:35.084Z,11.85
2018-09-30T13:27:03.161Z,9.03
2018-09-30T13:29:31.315Z,9.45
2018-09-30T13:31:59.393Z,11.57
2018-09-30T13:34:27.493Z,7.15
2018-09-30T13:36:55.576Z,8.93
2018-09-30T13:39:23.634Z,7.35
2018-09-30T13:41:51.717Z,10.98
2018-09-30T13:44:19.781Z,8.98
2018-09-30T13:46:47.849Z,7.10
2018-09-30T13:49:15.905Z,9.13
2018-09-30T13:51:43.986Z,12.55
2018-09-30T13:54:12.053Z,10.65
2018-09-30T13:56:40.133Z,9.23
2018-09-30T13:59:08.197Z,7.83
2018-09-30T14:01:36.273Z,12.35
2018-09-30T14:04:04.353Z,10.28
2018-09-30T14:06:32.457Z,11.48
2018-09-30T14:09:00.593Z,10.88
2018-09-30T14:11:28.674Z,7.95
2018-09-30T14:13:56.738Z,6.60
2018-09-30T14:16:24.824Z,8.20
2018-09-30T14:18:52.897Z,7.03
2018-09-30T14:21:21.067Z,10.23
2018-09-30T14:23:49.145Z,12.23
2018-09-30T14:26:17.241Z,10.18
2018-09-30T14:28:45.317Z,5.80
2018-09-30T14:31:13.402Z,10.48
2018-09-30T14:33:41.478Z,8.48
2018-09-30T14:36:09.581Z,11.60
2018-09-30T14:38:37.642Z,7.58
2018-09-30T14:41:05.720Z,14.23
2018-09-30T14:43:33.793Z,8.95
2018-09-30T14:46:01.957Z,7.95
2018-09-30T14:48:30.055Z,9.00
2018-09-30T14:50:58.105Z,10.48
2018-09-30T14:53:26.172Z,10.10
2018-09-30T14:55:54.241Z,6.85
2018-09-30T14:58:22.318Z,6.78
2018-09-30T15:00:50.381Z,4.50
2018-09-30T15:03:18.507Z,8.38
2018-09-30T15:05:46.833Z,6.53
2018-09-30T15:08:14.994Z,6.15
2018-09-30T15:10:43.052Z,6.20
2018-09-30T15:13:11.137Z,9.90
2018-09-30T15:15:39.271Z,6.78
2018-09-30T15:18:07.347Z,8.83
2018-09-30T15:20:35.409Z,7.30
2018-09-30T15:23:03.486Z,8.45
2018-09-30T15:25:31.557Z,8.18
2018-09-30T15:27:59.626Z,5.65
2018-09-30T15:30:27.697Z,5.95
2018-09-30T15:32:55.794Z,7.40
2018-09-30T15:35:23.865Z,7.95
2018-09-30T15:37:51.942Z,6.85
2018-09-30T15:40:19.993Z,7.72
2018-09-30T15:42:48.074Z,10.58
2018-09-30T15:45:16.133Z,6.83
2018-09-30T15:47:44.201Z,8.98
2018-09-30T15:50:12.269Z,4.60
2018-09-30T15:52:40.341Z,9.10
2018-09-30T15:55:08.393Z,6.58
2018-09-30T15:57:36.474Z,9.35
2018-09-30T16:00:04.537Z,11.18
2018-09-30T16:02:32.611Z,10.60
2018-09-30T16:05:00.686Z,5.85
2018-09-30T16:07:28.749Z,6.15
2018-09-30T16:09:56.805Z,8.18
2018-09-30T16:12:24.927Z,10.53
2018-09-30T16:14:52.990Z,13.48
2018-09-30T16:17:21.064Z,6.22
2018-09-30T16:19:49.145Z,8.68
2018-09-30T16:22:17.217Z,25.15
2018-09-30T16:24:45.378Z,8.08
2018-09-30T16:27:13.437Z,7.10
2018-09-30T16:29:41.513Z,8.05
2018-09-30T16:32:09.682Z,7.58
2018-09-30T16:34:37.749Z,7.12
2018-09-30T16:37:05.833Z,8.08
2018-09-30T16:39:33.905Z,8.25
2018-09-30T16:42:01.981Z,14.80
2018-09-30T16:44:30.061Z,11.85
2018-09-30T16:46:58.213Z,7.25
2018-09-30T16:49:26.281Z,9.25
2018-09-30T16:51:54.337Z,13.20
2018-09-30T16:54:22.425Z,15.20
2018-09-30T16:56:50.620Z,6.12
2018-09-30T16:59:18.677Z,7.12
2018-09-30T17:01:46.730Z,6.75
2018-09-30T17:04:14.797Z,6.42
2018-09-30T17:06:42.931Z,4.47
2018-09-30T17:09:10.948Z,6.55
2018-09-30T17:11:39.009Z,9.10
2018-09-30T17:14:07.929Z,10.55
2018-09-30T17:16:35.982Z,7.20
2018-09-30T17:19:04.108Z,12.68
2018-09-30T17:21:32.173Z,7.72
2018-09-30T17:24:00.281Z,8.40
2018-09-30T17:26:28.338Z,8.08
2018-09-30T17:28:56.421Z,25.17
2018-09-30T17:31:24.574Z,8.98
2018-09-30T17:33:52.684Z,7.28
2018-09-30T17:36:20.749Z,5.00
2018-09-30T17:38:48.825Z,7.22
2018-09-30T17:41:16.894Z,9.45
2018-09-30T17:43:45.034Z,10.10
2018-09-30T17:46:13.046Z,9.28
2018-09-30T17:48:41.117Z,5.20
2018-09-30T17:51:09.202Z,9.08
2018-09-30T17:53:37.274Z,5.58
2018-09-30T17:56:05.713Z,12.47
2018-09-30T17:58:33.791Z,3.50
2018-09-30T18:01:01.888Z,8.23
2018-09-30T18:03:29.977Z,6.55
2018-09-30T18:05:58.053Z,13.88
2018-09-30T18:08:26.122Z,6.20
2018-09-30T18:10:54.268Z,5.35
2018-09-30T18:13:22.325Z,6.92
2018-09-30T18:15:50.398Z,5.50
2018-09-30T18:18:18.546Z,9.55
2018-09-30T18:20:46.661Z,12.18
2018-09-30T18:23:14.751Z,7.35
2018-09-30T18:25:42.820Z,6.60
2018-09-30T18:28:11.214Z,7.03
2018-09-30T18:30:39.318Z,7.53
2018-09-30T18:33:07.517Z,5.80
2018-09-30T18:35:35.597Z,8.10
2018-09-30T18:38:03.681Z,6.62
2018-09-30T18:40:39.865Z,7.20
2018-09-30T18:43:07.973Z,4.97
2018-09-30T18:45:36.069Z,7.78
2018-09-30T18:48:04.156Z,6.30
2018-09-30T18:50:32.233Z,6.12
2018-09-30T18:53:00.329Z,10.05
2018-09-30T18:55:28.396Z,7.37
2018-09-30T18:57:56.521Z,8.08
2018-09-30T19:00:24.607Z,7.65
2018-09-30T19:02:52.693Z,6.35
2018-09-30T19:05:20.798Z,10.85
2018-09-30T19:07:48.897Z,4.62
2018-09-30T19:10:16.981Z,6.33
2018-09-30T19:12:45.086Z,9.03
2018-09-30T19:15:13.235Z,9.23
2018-09-30T19:17:41.277Z,7.87
2018-09-30T19:20:09.353Z,8.38
2018-09-30T19:22:37.465Z,7.60
2018-09-30T19:25:05.557Z,9.85
2018-09-30T19:27:33.593Z,5.83
2018-09-30T19:30:01.725Z,7.12
2018-09-30T19:32:29.780Z,7.08
2018-09-30T19:34:57.893Z,8.63
2018-09-30T19:37:25.966Z,4.40
2018-09-30T19:39:54.049Z,5.92
2018-09-30T19:42:22.118Z,7.92
2018-09-30T19:44:50.186Z,6.08
2018-09-30T19:47:18.263Z,5.25
2018-09-30T19:49:46.344Z,6.70
2018-09-30T19:52:14.420Z,11.45
2018-09-30T19:54:42.538Z,8.70
2018-09-30T19:57:10.600Z,8.30
2018-09-30T19:59:38.676Z,6.03
2018-09-30T20:02:07.185Z,4.62
2018-09-30T20:04:35.265Z,5.45
2018-09-30T20:07:03.353Z,14.23
2018-09-30T20:09:31.452Z,5.65
2018-09-30T20:11:59.533Z,5.03
2018-09-30T20:14:27.619Z,6.67
2018-09-30T20:16:55.692Z,8.00
2018-09-30T20:19:23.766Z,5.67
2018-09-30T20:21:51.840Z,8.73
2018-09-30T20:24:19.937Z,5.25
2018-09-30T20:26:48.047Z,8.23
2018-09-30T20:29:16.104Z,10.78
2018-09-30T20:31:44.177Z,6.95
2018-09-30T20:34:12.295Z,14.30
2018-09-30T20:36:40.394Z,10.03
2018-09-30T20:39:08.473Z,7.65
2018-09-30T20:41:36.545Z,14.05
2018-09-30T20:44:04.621Z,10.60
2018-09-30T20:46:32.760Z,12.60
2018-09-30T20:49:00.847Z,14.20
2018-09-30T20:51:28.920Z,14.45
2018-09-30T20:53:56.977Z,11.43
2018-09-30T20:56:25.057Z,18.98
2018-09-30T20:58:53.117Z,16.00
2018-09-30T21:01:21.201Z,9.38
2018-09-30T21:03:49.277Z,13.55
2018-09-30T21:06:23.785Z,10.48
2018-09-30T21:08:51.850Z,8.48
2018-09-30T21:11:19.926Z,11.85
2018-09-30T21:13:47.990Z,10.23
2018-09-30T21:16:16.058Z,14.03
2018-09-30T21:18:44.354Z,10.32
2018-09-30T21:21:12.401Z,5.25
2018-09-30T21:23:40.509Z,7.05
2018-09-30T21:26:08.589Z,7.40
2018-09-30T21:28:36.753Z,6.45
2018-09-30T21:31:04.885Z,5.70
2018-09-30T21:33:32.976Z,11.97
2018-09-30T21:36:01.082Z,16.32
2018-09-30T21:38:29.141Z,7.60
2018-09-30T21:40:57.277Z,7.40
2018-09-30T21:43:25.332Z,7.45
2018-09-30T21:45:53.402Z,8.23
2018-09-30T21:48:21.791Z,6.25
2018-09-30T21:50:49.864Z,5.95
2018-09-30T21:53:18.333Z,11.65
2018-09-30T21:55:46.429Z,7.55
2018-09-30T21:58:14.505Z,7.12
2018-09-30T22:00:48.628Z,6.85
2018-09-30T22:03:16.777Z,8.60
2018-09-30T22:05:44.841Z,6.30
2018-09-30T22:08:12.931Z,16.62
2018-09-30T22:10:42.089Z,6.10
2018-09-30T22:13:10.985Z,9.30
2018-09-30T22:15:39.066Z,8.20
2018-09-30T22:18:07.145Z,8.08
2018-09-30T22:20:35.271Z,7.03
2018-09-30T22:23:03.350Z,16.15
2018-09-30T22:25:31.424Z,6.60
2018-09-30T22:27:59.713Z,7.20
2018-09-30T22:30:27.796Z,10.08
2018-09-30T22:32:55.877Z,13.32
2018-09-30T22:35:23.961Z,8.68
2018-09-30T22:37:52.046Z,5.65
2018-09-30T22:40:20.211Z,6.87
2018-09-30T22:42:48.230Z,5.22
2018-09-30T22:45:16.285Z,6.90
2018-09-30T22:47:44.358Z,10.13
2018-09-30T22:50:12.424Z,7.50
2018-09-30T22:52:40.492Z,7.45
2018-09-30T22:55:08.553Z,7.65
2018-09-30T22:57:36.626Z,15.50
2018-09-30T23:00:05.322Z,11.73
2018-09-30T23:02:33.390Z,5.55
2018-09-30T23:05:01.446Z,4.25
2018-09-30T23:07:29.517Z,8.70
2018-09-30T23:09:57.577Z,7.10
2018-09-30T23:12:25.653Z,11.10
2018-09-30T23:14:53.717Z,4.87
2018-09-30T23:17:21.786Z,6.03
2018-09-30T23:19:49.841Z,5.60
2018-09-30T23:22:17.911Z,5.17
2018-09-30T23:24:45.972Z,8.23
2018-09-30T23:27:14.057Z,3.70
2018-09-30T23:29:42.113Z,5.90
2018-09-30T23:32:10.185Z,5.80
2018-09-30T23:34:38.305Z,8.58
2018-09-30T23:37:06.494Z,5.95
2018-09-30T23:39:34.558Z,4.78
2018-09-30T23:42:02.633Z,4.12
2018-09-30T23:44:30.699Z,5.55
2018-09-30T23:46:58.761Z,11.83
2018-09-30T23:49:26.841Z,5.85
2018-09-30T23:51:54.904Z,9.90
2018-09-30T23:54:22.981Z,8.90
2018-09-30T23:56:51.080Z,11.30
2018-09-30T23:59:19.222Z,9.58
